Time;durP1;ratioP1;P1;durP2;ratioP2;P2;SDS_P1;SDS_P2;PMS_P1;PMS_P2;Temp;Humidity;BMP_temperature;BMP_pressure;BME280_temperature;BME280_humidity;BME280_pressure;Samples;Min_cycle;Max_cycle;Signal;HPM_P1;HPM_P2
2023/07/06 00:00:26;;;;;;;5.63;5.13;;;;;;;22.70;100.00;101248.53;2081090;28;20200;-60
2023/07/06 00:01:26;;;;;;;7.80;5.60;;;;;;;22.98;100.00;101294.75;2081418;28;20201;-60
2023/07/06 00:02:27;;;;;;;6.90;5.20;;;;;;;22.96;100.00;101296.53;2081090;28;20303;-60
2023/07/06 00:03:27;;;;;;;7.77;5.37;;;;;;;22.97;100.00;101303.75;2089030;28;20203;-60
2023/07/06 00:04:28;;;;;;;8.17;5.53;;;;;;;22.99;100.00;101304.00;2088825;28;20183;-60
2023/07/06 00:05:29;;;;;;;7.13;5.17;;;;;;;23.00;100.00;101300.69;2089134;28;20202;-60
2023/07/06 00:06:31;;;;;;;6.03;4.97;;;;;;;22.89;100.00;101289.31;2082513;28;20188;-60
2023/07/06 00:07:31;;;;;;;7.77;5.53;;;;;;;22.91;100.00;101295.22;2081614;28;20189;-59
2023/07/06 00:08:32;;;;;;;7.90;5.23;;;;;;;22.90;100.00;101290.84;2085572;28;20721;-60
2023/07/06 00:09:35;;;;;;;6.30;5.00;;;;;;;22.87;100.00;101296.72;2086063;28;20595;-59
2023/07/06 00:10:36;;;;;;;6.40;5.63;;;;;;;22.75;100.00;101295.84;2080978;28;20670;-59
2023/07/06 00:11:39;;;;;;;8.03;5.83;;;;;;;22.80;100.00;101295.13;2081346;28;20636;-60
2023/07/06 00:12:39;;;;;;;7.50;5.90;;;;;;;22.81;100.00;101293.06;2081027;28;20619;-59
2023/07/06 00:13:40;;;;;;;6.60;5.50;;;;;;;22.92;100.00;101296.00;2081651;28;20242;-60
2023/07/06 00:14:41;;;;;;;6.97;5.50;;;;;;;22.96;100.00;101294.47;2085346;28;20338;-60
2023/07/06 00:15:42;;;;;;;7.90;5.27;;;;;;;22.57;100.00;101228.38;2081208;28;20553;-59
2023/07/06 00:16:47;;;;;;;8.90;5.90;;;;;;;22.87;100.00;101277.69;2086466;28;20211;-60
2023/07/06 00:17:48;;;;;;;8.23;5.67;;;;;;;23.04;100.00;101283.50;2084559;28;20192;-60
2023/07/06 00:18:48;;;;;;;8.43;5.70;;;;;;;23.04;100.00;101292.75;2084289;28;20192;-59
2023/07/06 00:19:48;;;;;;;6.70;5.37;;;;;;;23.07;100.00;101286.09;2086093;28;20181;-60
2023/07/06 00:20:49;;;;;;;6.33;5.27;;;;;;;23.06;100.00;101286.59;2075119;28;20173;-60
2023/07/06 00:21:50;;;;;;;8.10;5.60;;;;;;;23.08;100.00;101286.88;2088920;28;20226;-60
2023/07/06 00:22:50;;;;;;;8.40;5.53;;;;;;;23.02;100.00;101284.00;2089702;28;20576;-60
2023/07/06 00:23:51;;;;;;;8.13;5.47;;;;;;;22.63;100.00;101234.09;2081630;28;20227;-60
2023/07/06 00:24:51;;;;;;;8.83;5.40;;;;;;;21.85;100.00;101113.22;2081285;28;20620;-60
2023/07/06 00:25:52;;;;;;;6.73;5.30;;;;;;;22.88;100.00;101279.25;2081246;28;20211;-59
2023/07/06 00:26:52;;;;;;;8.50;5.23;;;;;;;22.90;100.00;101285.19;2077054;28;20186;-60
2023/07/06 00:27:58;;;;;;;7.70;5.30;;;;;;;22.92;100.00;101279.81;2075754;28;20624;-60
2023/07/06 00:28:58;;;;;;;7.30;5.37;;;;;;;22.78;100.00;101255.28;2082159;28;20253;-59
2023/07/06 00:30:18;;;;;;;6.30;5.23;;;;;;;22.96;100.00;101279.56;2088121;28;20251;-59
2023/07/06 00:31:21;;;;;;;8.70;5.20;;;;;;;22.84;100.00;101255.31;2080757;28;20168;-60
2023/07/06 00:32:28;;;;;;;6.20;5.23;;;;;;;22.98;100.00;101263.66;2080905;28;20231;-59
2023/07/06 00:33:29;;;;;;;7.33;5.70;;;;;;;23.01;100.00;101270.34;2081313;28;20193;-60
2023/07/06 00:34:34;;;;;;;7.13;4.93;;;;;;;22.93;100.00;101255.91;2081471;28;20185;-59
2023/07/06 00:35:35;;;;;;;6.97;5.00;;;;;;;23.03;100.00;101265.75;2072721;28;20197;-59
2023/07/06 00:36:35;;;;;;;7.67;5.00;;;;;;;23.02;100.00;101261.38;2079788;28;20181;-60
2023/07/06 00:37:39;;;;;;;7.40;5.33;;;;;;;23.05;100.00;101262.41;2087079;28;20231;-60
2023/07/06 00:38:40;;;;;;;8.00;5.43;;;;;;;23.08;100.00;101262.19;2082950;28;20250;-60
2023/07/06 00:39:40;;;;;;;7.33;5.57;;;;;;;23.05;100.00;101265.25;2080291;28;20201;-59
2023/07/06 00:40:43;;;;;;;6.20;5.03;;;;;;;23.04;100.00;101270.16;2081091;28;20181;-60
2023/07/06 00:41:43;;;;;;;9.00;5.27;;;;;;;23.08;100.00;101267.09;2078545;28;20647;-60
2023/07/06 00:42:44;;;;;;;8.60;5.40;;;;;;;23.10;100.00;101264.50;2073753;28;20177;-59
2023/07/06 00:43:55;;;;;;;5.60;4.97;;;;;;;23.11;100.00;101266.84;2080861;28;20590;-60
2023/07/06 00:44:57;;;;;;;6.87;5.17;;;;;;;23.13;100.00;101263.53;2081085;28;20169;-59
2023/07/06 00:46:08;;;;;;;8.27;5.97;;;;;;;23.12;100.00;101259.91;2081190;28;20190;-60
2023/07/06 00:47:11;;;;;;;5.87;5.10;;;;;;;23.16;100.00;101268.16;2081435;28;20169;-60
2023/07/06 00:48:26;;;;;;;7.10;5.50;;;;;;;23.15;100.00;101258.13;2088953;28;20262;-59
2023/07/06 00:49:26;;;;;;;7.83;5.43;;;;;;;23.17;100.00;101258.38;2073292;28;20173;-60
2023/07/06 00:50:30;;;;;;;6.33;4.97;;;;;;;22.66;100.00;101190.69;2080699;28;20212;-59
2023/07/06 00:51:37;;;;;;;9.83;5.70;;;;;;;23.22;100.00;101263.34;2074092;28;20186;-60
2023/07/06 00:52:42;;;;;;;6.33;5.17;;;;;;;23.20;100.00;101274.38;2079517;28;20303;-60
2023/07/06 00:53:48;;;;;;;7.57;5.77;;;;;;;22.86;100.00;101208.34;2074725;28;20194;-60
2023/07/06 00:54:49;;;;;;;10.60;5.00;;;;;;;23.23;100.00;101257.19;2084571;28;20296;-59
2023/07/06 00:55:51;;;;;;;8.07;5.33;;;;;;;23.21;100.00;101261.78;2084558;28;20187;-59
2023/07/06 00:56:52;;;;;;;10.60;5.60;;;;;;;23.17;100.00;101245.03;2080545;28;20204;-59
2023/07/06 00:57:58;;;;;;;6.67;5.00;;;;;;;23.22;100.00;101266.94;2081049;28;20276;-60
2023/07/06 00:59:02;;;;;;;8.67;5.23;;;;;;;23.21;100.00;101250.47;2081115;28;20646;-59
2023/07/06 01:00:04;;;;;;;8.13;5.60;;;;;;;22.79;100.00;101189.03;2081107;28;20180;-60
2023/07/06 01:01:07;;;;;;;7.63;5.43;;;;;;;23.22;100.00;101257.69;2080788;28;20267;-60
2023/07/06 01:02:14;;;;;;;6.00;5.07;;;;;;;23.22;100.00;101260.50;2080980;28;20204;-60
2023/07/06 01:03:19;;;;;;;7.03;5.30;;;;;;;;;;2073178;28;20162;-60
2023/07/06 01:04:20;;;;;;;6.37;5.07;;;;;;;23.21;100.00;101253.31;2073114;28;20225;-59
2023/07/06 01:05:25;;;;;;;7.90;5.20;;;;;;;23.20;100.00;101265.91;2072994;28;20201;-60
2023/07/06 01:06:29;;;;;;;9.00;5.50;;;;;;;23.18;100.00;101249.44;2086446;28;20286;-60
2023/07/06 01:07:31;;;;;;;6.23;5.63;;;;;;;22.76;100.00;101192.84;2076819;28;20657;-60
2023/07/06 01:08:35;;;;;;;7.90;5.27;;;;;;;23.13;100.00;101255.03;2078017;28;20695;-60
2023/07/06 01:09:37;;;;;;;7.40;5.40;;;;;;;23.10;100.00;101247.56;2081102;28;20185;-59
2023/07/06 01:10:39;;;;;;;5.90;5.30;;;;;;;23.14;100.00;101245.28;2084209;28;20192;-59
2023/07/06 01:11:43;;;;;;;6.07;5.50;;;;;;;23.12;100.00;101242.94;2086522;28;20204;-59
2023/07/06 01:12:44;;;;;;;6.43;5.13;;;;;;;23.06;100.00;101244.97;2082498;28;20169;-60
2023/07/06 01:13:49;;;;;;;7.33;5.33;;;;;;;23.07;100.00;101245.72;2088525;28;20187;-59
2023/07/06 01:14:49;;;;;;;9.07;5.50;;;;;;;22.94;100.00;101237.69;2080825;28;20235;-60
2023/07/06 01:16:00;;;;;;;7.83;5.80;;;;;;;22.92;100.00;101231.00;2081221;28;20242;-60
2023/07/06 01:17:15;;;;;;;7.77;5.93;;;;;;;23.03;100.00;101239.56;2072998;28;20186;-60
2023/07/06 01:18:28;;;;;;;6.30;5.60;;;;;;;23.01;100.00;101240.06;2072991;28;20165;-60
2023/07/06 01:20:04;;;;;;;5.90;5.30;;;;;;;22.99;100.00;101236.97;2072771;28;20169;-59
2023/07/06 01:21:16;;;;;;;7.70;5.57;;;;;;;23.00;100.00;101234.88;2081070;28;20177;-59
2023/07/06 01:22:48;;;;;;;6.87;5.57;;;;;;;22.96;100.00;101232.31;2084918;28;20289;-60
2023/07/06 01:24:17;;;;;;;6.77;5.50;;;;;;;22.96;100.00;101231.50;2081488;28;20547;-60
2023/07/06 01:25:30;;;;;;;7.37;5.50;;;;;;;22.88;100.00;101236.09;2073697;28;20206;-60
2023/07/06 01:26:39;;;;;;;6.80;5.40;;;;;;;22.91;100.00;101235.06;2078875;28;20188;-60
2023/07/06 01:28:15;;;;;;;8.93;5.20;;;;;;;22.85;100.00;101237.88;2073906;28;20193;-59
2023/07/06 01:29:33;;;;;;;6.13;5.00;;;;;;;22.78;100.00;101235.50;2076573;28;20263;-59
2023/07/06 01:30:45;;;;;;;7.23;5.60;;;;;;;22.76;100.00;101238.06;2085881;28;20206;-59
2023/07/06 01:32:13;;;;;;;10.07;5.53;;;;;;;22.78;100.00;101226.25;2077734;28;20255;-60
2023/07/06 01:33:25;;;;;;;8.10;5.40;;;;;;;22.76;100.00;101226.75;2088239;28;20442;-60
2023/07/06 01:34:43;;;;;;;7.70;5.80;;;;;;;22.73;100.00;101235.47;2089331;28;20171;-60
2023/07/06 01:35:53;;;;;;;8.13;5.70;;;;;;;22.01;100.00;101135.19;2072892;28;20161;-60
2023/07/06 01:37:05;;;;;;;8.27;5.27;;;;;;;22.42;100.00;101196.63;2080681;28;20339;-60
2023/07/06 01:38:06;;;;;;;9.23;5.57;;;;;;;22.66;100.00;101233.06;2080823;28;20576;-60
2023/07/06 01:39:12;;;;;;;8.93;5.53;;;;;;;22.65;100.00;101231.53;2081046;28;20181;-60
2023/07/06 01:40:13;;;;;;;9.53;5.93;;;;;;;22.47;100.00;101210.06;2080768;28;20181;-60
2023/07/06 01:41:24;;;;;;;6.97;5.73;;;;;;;22.53;100.00;101212.94;2080925;28;20192;-60
2023/07/06 01:42:27;;;;;;;7.53;5.80;;;;;;;22.63;100.00;101226.38;2080602;28;20655;-59
2023/07/06 01:43:28;;;;;;;10.03;5.77;;;;;;;22.58;100.00;101220.69;2073614;28;20185;-60
2023/07/06 01:44:28;;;;;;;10.50;5.70;;;;;;;22.48;100.00;101208.03;2078731;28;20224;-60
2023/07/06 01:45:30;;;;;;;6.93;5.43;;;;;;;22.64;100.00;101218.69;2081102;28;20208;-60
2023/07/06 01:46:30;;;;;;;7.43;5.77;;;;;;;22.65;100.00;101226.66;2080525;28;20196;-59
2023/07/06 01:47:35;;;;;;;8.33;5.97;;;;;;;22.67;100.00;101224.09;2080991;28;20486;-59
2023/07/06 01:48:37;;;;;;;10.00;6.33;;;;;;;22.68;100.00;101224.88;2080345;28;20659;-60
2023/07/06 01:49:38;;;;;;;9.97;6.30;;;;;;;22.56;100.00;101218.38;2081362;28;20173;-59
2023/07/06 01:50:59;;;;;;;12.13;5.93;;;;;;;22.68;100.00;101222.81;2089026;28;20176;-59
2023/07/06 01:52:18;;;;;;;9.33;6.10;;;;;;;22.67;100.00;101223.34;2075131;28;20685;-60
2023/07/06 01:53:31;;;;;;;8.47;5.27;;;;;;;22.49;100.00;101204.72;2086033;28;23990;-59
2023/07/06 01:54:40;;;;;;;8.33;5.37;;;;;;;22.46;100.00;101199.28;2080380;28;20288;-59
2023/07/06 01:55:53;;;;;;;7.77;5.57;;;;;;;22.67;100.00;101229.75;2080753;28;20434;-60
2023/07/06 01:57:05;;;;;;;8.87;5.53;;;;;;;22.59;100.00;101222.25;2080409;28;20456;-59
2023/07/06 01:58:18;;;;;;;8.93;6.10;;;;;;;22.63;100.00;101231.28;2086200;28;20172;-59
2023/07/06 01:59:21;;;;;;;12.50;5.80;;;;;;;22.61;100.00;101225.34;2090291;28;20203;-59
2023/07/06 02:00:24;;;;;;;14.07;6.00;;;;;;;22.58;100.00;101234.81;2086569;28;20436;-60
2023/07/06 02:01:31;;;;;;;8.77;4.83;;;;;;;22.57;100.00;101233.28;2084852;28;20204;-60
2023/07/06 02:02:33;;;;;;;8.57;5.13;;;;;;;22.51;100.00;101221.91;2087677;28;20200;-59
2023/07/06 02:03:34;;;;;;;10.80;5.57;;;;;;;22.42;100.00;101230.53;2082408;28;20484;-60
2023/07/06 02:04:37;;;;;;;8.73;4.97;;;;;;;22.35;100.00;101227.38;2082134;28;20169;-59
2023/07/06 02:05:40;;;;;;;10.47;5.77;;;;;;;22.34;100.00;101226.63;2082607;28;20567;-61
2023/07/06 02:06:42;;;;;;;7.67;6.97;;;;;;;22.12;100.00;101234.09;2082069;28;20514;-60
2023/07/06 02:07:43;;;;;;;9.20;7.53;;;;;;;22.10;100.00;101231.75;2082338;28;20443;-59
2023/07/06 02:08:45;;;;;;;8.87;7.73;;;;;;;21.61;100.00;101174.75;2082142;28;20200;-61
2023/07/06 02:09:47;;;;;;;9.47;7.83;;;;;;;21.99;100.00;101245.75;2082542;28;20175;-59
2023/07/06 02:10:48;;;;;;;8.60;6.53;;;;;;;22.01;100.00;101245.25;2085790;28;20940;-59
2023/07/06 02:11:51;;;;;;;11.20;6.20;;;;;;;22.02;100.00;101247.59;2088124;28;20432;-59
2023/07/06 02:12:52;;;;;;;8.83;6.17;;;;;;;22.02;100.00;101250.41;2082082;28;20185;-59
2023/07/06 02:13:52;;;;;;;9.67;6.90;;;;;;;22.03;100.00;101243.50;2082026;28;20947;-60
2023/07/06 02:14:53;;;;;;;10.87;6.30;;;;;;;22.06;100.00;101241.72;2082142;28;20261;-59
2023/07/06 02:15:54;;;;;;;10.47;6.13;;;;;;;22.08;100.00;101244.81;2082280;28;20641;-59
2023/07/06 02:16:55;;;;;;;8.43;5.50;;;;;;;22.07;100.00;101238.41;2081356;28;20189;-59
2023/07/06 02:17:56;;;;;;;10.73;6.17;;;;;;;22.08;100.00;101237.13;2086907;28;20461;-59
2023/07/06 02:18:59;;;;;;;8.83;6.30;;;;;;;22.09;100.00;101232.25;2086229;28;20185;-59
2023/07/06 02:20:00;;;;;;;10.37;6.20;;;;;;;22.11;100.00;101232.53;2085933;28;20668;-60
2023/07/06 02:21:01;;;;;;;9.30;6.90;;;;;;;22.12;100.00;101234.09;2088121;28;20834;-59
2023/07/06 02:22:05;;;;;;;7.57;6.73;;;;;;;21.83;100.00;101183.47;2082287;28;20536;-60
2023/07/06 02:23:07;;;;;;;9.93;6.40;;;;;;;21.77;100.00;101189.06;2089501;28;20176;-60
2023/07/06 02:24:09;;;;;;;9.73;7.20;;;;;;;21.69;100.00;101185.13;2074312;28;20436;-60
2023/07/06 02:25:10;;;;;;;11.47;8.43;;;;;;;21.85;100.00;101229.66;2081830;28;20831;-59
2023/07/06 02:26:11;;;;;;;10.00;8.03;;;;;;;21.70;100.00;101231.03;2082152;28;20493;-59
2023/07/06 02:27:11;;;;;;;10.07;7.70;;;;;;;21.17;100.00;101158.03;2089854;28;20446;-59
2023/07/06 02:28:11;;;;;;;9.20;7.70;;;;;;;21.65;100.00;101240.19;2085466;28;20191;-59
2023/07/06 02:29:14;;;;;;;11.17;7.50;;;;;;;21.61;100.00;101233.97;2079855;28;20203;-59
2023/07/06 02:30:15;;;;;;;8.47;7.03;;;;;;;21.57;100.00;101225.72;2088005;28;20176;-59
2023/07/06 02:31:15;;;;;;;8.60;7.23;;;;;;;21.26;100.00;101180.47;2081980;28;20515;-59
2023/07/06 02:32:16;;;;;;;10.40;7.60;;;;;;;21.68;100.00;101231.53;2082465;28;20618;-60
2023/07/06 02:33:16;;;;;;;9.90;7.70;;;;;;;21.77;100.00;101239.06;2089792;28;20271;-59
2023/07/06 02:34:26;;;;;;;8.07;7.27;;;;;;;21.61;100.00;101226.28;2083692;28;20193;-59
2023/07/06 02:35:27;;;;;;;9.20;6.00;;;;;;;21.36;100.00;101201.63;2088925;28;20250;-59
2023/07/06 02:36:27;;;;;;;10.67;6.03;;;;;;;21.56;100.00;101238.28;2084654;28;20492;-60
2023/07/06 02:37:29;;;;;;;7.57;5.80;;;;;;;21.19;100.00;101197.78;2082084;28;20201;-60
2023/07/06 02:38:29;;;;;;;6.80;6.10;;;;;;;20.82;100.00;101134.72;2082168;28;20196;-59
2023/07/06 02:39:30;;;;;;;6.43;5.67;;;;;;;20.74;100.00;101132.81;2083878;28;20420;-60
2023/07/06 02:40:32;;;;;;;8.43;5.77;;;;;;;21.31;100.00;101229.72;2089214;28;20246;-59
2023/07/06 02:41:33;;;;;;;11.03;6.00;;;;;;;20.91;100.00;101181.72;2082050;28;20176;-59
2023/07/06 02:42:34;;;;;;;6.87;5.80;;;;;;;21.22;100.00;101249.56;2090456;28;20470;-59
2023/07/06 02:43:35;;;;;;;7.73;5.87;;;;;;;21.15;100.00;101247.16;2082837;28;20929;-60
2023/07/06 02:44:36;;;;;;;10.43;5.97;;;;;;;21.10;100.00;101251.47;2087965;28;20909;-59
2023/07/06 02:45:37;;;;;;;9.00;5.60;;;;;;;20.89;100.00;101232.16;2084885;28;20189;-59
2023/07/06 02:46:37;;;;;;;9.63;5.83;;;;;;;20.96;100.00;101254.31;2085418;28;20450;-59
2023/07/06 02:47:40;;;;;;;7.67;5.70;;;;;;;20.66;100.00;101218.94;2087371;28;20579;-59
2023/07/06 02:48:41;;;;;;;8.27;5.60;;;;;;;20.44;100.00;101196.06;2089409;28;20203;-59
2023/07/06 02:49:41;;;;;;;8.57;6.10;;;;;;;20.85;100.00;101257.69;2089755;28;20841;-60
2023/07/06 02:50:48;;;;;;;8.93;6.03;;;;;;;20.80;100.00;101263.22;2082202;28;20691;-59
2023/07/06 02:51:48;;;;;;;7.60;6.03;;;;;;;20.79;100.00;101261.69;2074068;28;20605;-59
2023/07/06 02:52:49;;;;;;;11.77;6.17;;;;;;;20.80;100.00;101269.66;2081757;28;20430;-59
2023/07/06 02:53:49;;;;;;;7.33;5.87;;;;;;;20.81;100.00;101259.94;2082051;28;20226;-60
2023/07/06 02:54:51;;;;;;;8.10;5.97;;;;;;;20.80;100.00;101264.03;2082070;28;20185;-60
2023/07/06 02:55:51;;;;;;;7.33;5.40;;;;;;;20.76;100.00;101260.63;2086298;28;20253;-60
2023/07/06 02:56:52;;;;;;;8.20;5.80;;;;;;;20.80;100.00;101260.41;2086557;28;20504;-59
2023/07/06 02:57:52;;;;;;;7.07;5.90;;;;;;;20.76;100.00;101271.09;2081829;28;20180;-59
2023/07/06 02:58:53;;;;;;;7.43;5.53;;;;;;;20.66;100.00;101261.19;2081985;28;20191;-59
2023/07/06 02:59:56;;;;;;;7.87;5.57;;;;;;;20.77;100.00;101283.94;2082123;28;20185;-59
2023/07/06 03:00:56;;;;;;;9.37;5.93;;;;;;;20.81;100.00;101288.09;2073231;28;20229;-59
2023/07/06 03:01:58;;;;;;;7.53;5.73;;;;;;;20.82;100.00;101283.25;2080164;28;20431;-60
2023/07/06 03:02:58;;;;;;;8.63;5.60;;;;;;;20.81;100.00;101288.09;2086434;28;20283;-59
2023/07/06 03:03:59;;;;;;;7.97;5.43;;;;;;;20.84;100.00;101289.97;2084934;28;20505;-59
2023/07/06 03:04:59;;;;;;;7.87;5.90;;;;;;;20.87;100.00;101294.59;2086059;28;20598;-59
2023/07/06 03:06:02;;;;;;;7.93;6.13;;;;;;;20.90;100.00;101287.25;2086906;28;20298;-59
2023/07/06 03:07:04;;;;;;;7.47;5.80;;;;;;;20.61;100.00;101242.97;2081674;28;20256;-59
2023/07/06 03:08:05;;;;;;;7.67;5.70;;;;;;;21.01;100.00;101291.03;2082182;28;20422;-59
2023/07/06 03:09:07;;;;;;;8.10;5.50;;;;;;;21.08;100.00;101290.63;2081119;28;20424;-60
2023/07/06 03:10:08;;;;;;;7.37;5.73;;;;;;;20.91;100.00;101247.31;2089987;28;20439;-60
2023/07/06 03:11:10;;;;;;;7.73;5.53;;;;;;;21.24;100.00;101287.28;2082608;28;20447;-59
2023/07/06 03:12:10;;;;;;;7.30;5.30;;;;;;;21.31;100.00;101298.16;2081668;28;20565;-60
2023/07/06 03:13:12;;;;;;;7.77;5.20;;;;;;;21.40;100.00;101292.38;2081924;28;20435;-60
2023/07/06 03:14:12;;;;;;;6.87;5.00;;;;;;;21.44;100.00;101290.13;2089206;28;20211;-60
2023/07/06 03:15:15;;;;;;;6.80;5.40;;;;;;;21.50;100.00;101288.16;2081033;28;21038;-59
2023/07/06 03:16:15;;;;;;;7.13;5.50;;;;;;;21.57;100.00;101292.63;2083325;28;20185;-59
2023/07/06 03:17:16;;;;;;;7.47;5.63;;;;;;;21.62;100.00;101292.72;2088935;28;20259;-60
2023/07/06 03:18:18;;;;;;;8.80;5.00;;;;;;;21.69;100.00;101289.50;2082019;28;20181;-59
2023/07/06 03:19:18;;;;;;;7.10;5.27;;;;;;;21.77;100.00;101281.38;2073942;28;20181;-59
2023/07/06 03:20:20;;;;;;;9.00;5.00;;;;;;;21.81;100.00;101288.34;2073451;28;20220;-59
2023/07/06 03:21:21;;;;;;;5.63;4.70;;;;;;;21.87;100.00;101285.63;2079740;28;20200;-60
2023/07/06 03:22:22;;;;;;;6.63;4.97;;;;;;;21.92;100.00;101290.56;2081561;28;20204;-59
2023/07/06 03:23:23;;;;;;;6.50;5.27;;;;;;;21.95;100.00;101281.88;2081697;28;20276;-59
2023/07/06 03:24:23;;;;;;;7.67;5.23;;;;;;;22.02;100.00;101281.47;2084875;28;20216;-60
2023/07/06 03:25:25;;;;;;;8.30;5.30;;;;;;;21.38;100.00;101181.34;2089730;28;20661;-59
2023/07/06 03:26:26;;;;;;;8.90;5.00;;;;;;;22.07;100.00;101277.94;2088973;28;20272;-60
2023/07/06 03:27:26;;;;;;;8.33;5.37;;;;;;;22.12;100.00;101274.41;2082056;28;20185;-59
2023/07/06 03:28:28;;;;;;;5.90;5.30;;;;;;;22.15;100.00;101279.03;2081811;28;20735;-59
2023/07/06 03:29:30;;;;;;;7.87;5.13;;;;;;;22.17;100.00;101272.91;2081771;28;20575;-59
2023/07/06 03:30:31;;;;;;;6.70;5.20;;;;;;;22.20;100.00;101269.84;2081680;28;20200;-60
2023/07/06 03:31:32;;;;;;;7.67;4.93;;;;;;;22.24;100.00;101272.44;2081739;28;20196;-59
2023/07/06 03:32:38;;;;;;;6.77;4.90;;;;;;;22.26;100.00;101272.75;2081396;28;20177;-59
2023/07/06 03:33:40;;;;;;;8.57;4.80;;;;;;;22.31;100.00;101269.97;2081295;28;20702;-59
2023/07/06 03:34:41;;;;;;;13.33;5.30;;;;;;;22.35;100.00;101259.22;2081272;28;20208;-59
2023/07/06 03:35:41;;;;;;;6.63;5.00;;;;;;;22.36;100.00;101265.66;2080458;28;20662;-59
2023/07/06 03:36:42;;;;;;;6.53;4.90;;;;;;;22.23;100.00;101234.19;2073381;28;20251;-59
2023/07/06 03:37:43;;;;;;;8.37;5.20;;;;;;;22.44;100.00;101261.09;2081654;28;20181;-60
2023/07/06 03:38:44;;;;;;;8.50;4.50;;;;;;;22.33;100.00;101241.22;2081585;28;20184;-59
2023/07/06 03:39:47;;;;;;;7.17;4.30;;;;;;;22.49;100.00;101246.28;2081675;28;20193;-59
2023/07/06 03:40:49;;;;;;;11.83;4.80;;;;;;;22.13;100.00;101190.47;2081621;28;20192;-59
2023/07/06 03:41:50;;;;;;;9.27;5.20;;;;;;;22.55;100.00;101259.19;2081614;28;20184;-59
2023/07/06 03:42:50;;;;;;;10.20;5.40;;;;;;;22.53;100.00;101255.31;2081191;28;20176;-60
2023/07/06 03:43:56;;;;;;;11.43;4.33;;;;;;;22.52;100.00;101253.78;2080733;28;20263;-60
2023/07/06 03:44:56;;;;;;;12.00;5.30;;;;;;;22.32;100.00;101220.69;2081083;28;20165;-59
2023/07/06 03:45:57;;;;;;;8.93;4.60;;;;;;;22.54;100.00;101251.22;2081672;28;20200;-59
2023/07/06 03:46:58;;;;;;;6.73;5.10;;;;;;;22.59;100.00;101248.44;2089684;28;20203;-60
2023/07/06 03:47:59;;;;;;;12.43;5.20;;;;;;;22.63;100.00;101246.16;2090026;28;20185;-60
2023/07/06 03:49:09;;;;;;;8.00;5.03;;;;;;;22.09;100.00;101161.69;2089426;28;20269;-60
2023/07/06 03:50:12;;;;;;;9.07;5.03;;;;;;;22.68;100.00;101247.50;2083630;28;20177;-60
2023/07/06 03:51:13;;;;;;;11.50;5.37;;;;;;;22.70;100.00;101240.06;2086230;28;20295;-60
2023/07/06 03:52:16;;;;;;;7.80;4.90;;;;;;;22.50;100.00;101211.13;2089810;28;20184;-59
2023/07/06 03:53:18;;;;;;;7.17;4.63;;;;;;;22.76;100.00;101252.19;2086080;28;20180;-59
2023/07/06 03:54:18;;;;;;;9.97;5.30;;;;;;;22.73;100.00;101238.28;2081481;28;20214;-59
2023/07/06 03:55:22;;;;;;;10.70;5.30;;;;;;;22.81;100.00;101247.84;2082444;28;20184;-59
2023/07/06 03:56:27;;;;;;;9.50;5.27;;;;;;;22.85;100.00;101246.34;2088779;28;20186;-59
2023/07/06 03:57:30;;;;;;;9.03;4.90;;;;;;;22.82;100.00;101253.00;2081298;28;20176;-59
2023/07/06 03:58:31;;;;;;;7.50;4.77;;;;;;;22.85;100.00;101245.56;2081591;28;20668;-59
2023/07/06 03:59:33;;;;;;;5.97;4.60;;;;;;;22.87;100.00;101249.44;2081559;28;20600;-60
2023/07/06 04:00:35;;;;;;;10.60;5.43;;;;;;;22.91;100.00;101247.16;2081602;28;20781;-59
2023/07/06 04:01:36;;;;;;;9.90;4.83;;;;;;;22.89;100.00;101243.28;2081544;28;20189;-60
2023/07/06 04:02:37;;;;;;;8.13;5.37;;;;;;;22.93;100.00;101255.16;2081023;28;20211;-59
2023/07/06 04:03:37;;;;;;;8.20;5.50;;;;;;;22.94;100.00;101254.66;2084010;28;20195;-60
2023/07/06 04:04:41;;;;;;;10.27;5.33;;;;;;;22.66;100.00;101210.47;2087688;28;20168;-60
2023/07/06 04:05:47;;;;;;;8.50;5.13;;;;;;;22.95;100.00;101258.25;2081841;28;20174;-60
2023/07/06 04:06:48;;;;;;;10.83;4.87;;;;;;;22.95;100.00;101252.59;2088458;28;20160;-60
2023/07/06 04:07:52;;;;;;;8.97;4.83;;;;;;;22.97;100.00;101262.09;2081761;28;20173;-60
2023/07/06 04:08:56;;;;;;;11.60;4.60;;;;;;;22.97;100.00;101247.22;2073420;28;20189;-60
2023/07/06 04:09:57;;;;;;;9.93;5.50;;;;;;;23.00;100.00;101254.69;2080333;28;20192;-59
2023/07/06 04:10:57;;;;;;;10.33;5.20;;;;;;;23.04;100.00;101266.53;2080933;28;20331;-60
2023/07/06 04:11:58;;;;;;;11.53;4.83;;;;;;;23.05;100.00;101259.59;2086451;28;20691;-60
2023/07/06 04:12:58;;;;;;;9.17;5.20;;;;;;;23.05;100.00;101256.78;2085547;28;20653;-59
2023/07/06 04:13:59;;;;;;;7.63;4.80;;;;;;;23.07;100.00;101257.81;2081293;28;20568;-59
2023/07/06 04:14:59;;;;;;;10.10;5.23;;;;;;;23.02;100.00;101246.50;2081141;28;20312;-60
2023/07/06 04:16:00;;;;;;;11.67;5.40;;;;;;;23.13;100.00;101258.63;2081140;28;20185;-59
2023/07/06 04:17:01;;;;;;;7.03;5.30;;;;;;;23.14;100.00;101267.91;2081562;28;20280;-60
2023/07/06 04:18:03;;;;;;;7.97;4.67;;;;;;;23.17;100.00;101267.66;2087842;28;20633;-59
2023/07/06 04:19:04;;;;;;;11.40;4.90;;;;;;;23.16;100.00;101260.47;2082983;28;20239;-60
2023/07/06 04:20:18;;;;;;;13.13;5.47;;;;;;;22.84;100.00;101205.25;2080709;28;20185;-59
2023/07/06 04:21:19;;;;;;;13.37;4.73;;;;;;;23.07;100.00;101237.25;2081061;28;20179;-60
2023/07/06 04:22:19;;;;;;;9.77;5.10;;;;;;;23.20;100.00;101263.06;2081235;28;20222;-60
2023/07/06 04:23:20;;;;;;;12.40;5.80;;;;;;;23.21;100.00;101267.44;2081429;28;20196;-60
2023/07/06 04:24:21;;;;;;;9.50;4.77;;;;;;;23.22;100.00;101269.78;2081410;28;20658;-60
2023/07/06 04:25:26;;;;;;;9.60;5.50;;;;;;;23.36;100.00;101276.53;2081810;28;20192;-57
2023/07/06 04:26:27;;;;;;;7.57;5.07;;;;;;;23.43;100.00;101276.09;2081799;28;20192;-58
2023/07/06 04:27:27;;;;;;;6.30;4.60;;;;;;;23.42;100.00;101255.50;2081869;28;20292;-57
2023/07/06 04:28:28;;;;;;;8.40;4.07;;;;;;;23.71;100.00;101274.94;2081543;28;20181;-57
2023/07/06 04:29:29;;;;;;;6.07;4.37;;;;;;;24.01;100.00;101281.00;2081836;28;20273;-57
2023/07/06 04:30:33;;;;;;;5.60;4.10;;;;;;;24.18;100.00;101273.34;2081674;28;20185;-57
2023/07/06 04:31:33;;;;;;;7.07;3.77;;;;;;;24.26;100.00;101246.84;2081750;28;20279;-57
2023/07/06 04:32:34;;;;;;;6.57;4.30;;;;;;;24.58;100.00;101262.38;2081796;28;20170;-57
2023/07/06 04:33:34;;;;;;;8.40;3.63;;;;;;;24.52;100.00;101227.53;2081815;28;20616;-58
2023/07/06 04:34:34;;;;;;;8.37;4.27;;;;;;;24.83;100.00;101255.66;2081815;28;20196;-58
2023/07/06 04:35:35;;;;;;;9.50;3.90;;;;;;;24.80;100.00;101202.84;2081767;28;20259;-57
2023/07/06 04:36:36;;;;;;;8.43;3.70;;;;;;;25.23;100.00;101240.94;2081769;28;20172;-58
2023/07/06 04:37:36;;;;;;;4.37;3.30;;;;;;;25.33;100.00;101239.38;2081206;28;20192;-58
2023/07/06 04:38:37;;;;;;;7.47;3.87;;;;;;;25.53;100.00;101226.97;2081132;28;20166;-58
2023/07/06 04:39:38;;;;;;;8.77;3.77;;;;;;;25.60;100.00;101229.25;2081849;28;20229;-57
2023/07/06 04:40:41;;;;;;;6.20;3.50;;;;;;;25.64;100.00;101230.50;2081510;28;20654;-57
2023/07/06 04:41:43;;;;;;;8.30;3.47;;;;;;;25.39;100.00;101174.88;2082249;28;20187;-57
2023/07/06 04:42:46;;;;;;;5.90;3.37;;;;;;;25.83;100.00;101222.94;2084949;28;20193;-57
2023/07/06 04:43:46;;;;;;;5.40;3.20;;;;;;;25.90;100.00;101222.38;2081455;28;20232;-57
2023/07/06 04:44:47;;;;;;;5.47;3.10;;;;;;;26.02;100.00;101221.06;2081673;28;20169;-57
2023/07/06 04:45:47;;;;;;;6.07;3.03;;;;;;;26.19;100.00;101218.91;2081654;28;20404;-57
2023/07/06 04:46:48;;;;;;;7.90;3.50;;;;;;;26.24;100.00;101226.63;2081696;28;20180;-58
2023/07/06 04:47:51;;;;;;;5.30;3.20;;;;;;;26.29;100.00;101225.81;2081703;28;20258;-57
2023/07/06 04:48:53;;;;;;;7.87;3.60;;;;;;;26.33;100.00;101226.31;2076683;28;20220;-57
2023/07/06 04:49:54;;;;;;;11.47;3.67;;;;;;;26.45;100.00;101227.75;2077089;28;20677;-57
2023/07/06 04:50:55;;;;;;;9.03;3.47;;;;;;;26.32;100.00;101209.78;2082863;28;20561;-57